createdAt,value
2023-03-16T00:02:18.818Z,8.71
2023-03-16T00:04:47.715Z,8.70
2023-03-16T00:07:16.944Z,8.66
2023-03-16T00:09:44.643Z,8.70
2023-03-16T00:12:16.893Z,8.74
2023-03-16T00:14:50.260Z,8.76
2023-03-16T00:17:20.701Z,8.85
2023-03-16T00:19:55.222Z,8.67
2023-03-16T00:22:29.443Z,8.70
2023-03-16T00:24:58.076Z,8.70
2023-03-16T00:27:27.024Z,8.52
2023-03-16T00:29:57.967Z,8.59
2023-03-16T00:32:29.108Z,8.48
2023-03-16T00:34:57.375Z,8.39
2023-03-16T00:37:26.879Z,8.38
2023-03-16T00:39:56.526Z,8.38
2023-03-16T00:42:27.828Z,8.46
2023-03-16T00:44:57.315Z,8.44
2023-03-16T00:47:31.328Z,8.64
2023-03-16T00:50:01.213Z,8.68
2023-03-16T00:52:30.274Z,8.64
2023-03-16T00:54:58.710Z,8.57
2023-03-16T00:57:30.308Z,8.52
2023-03-16T00:59:59.623Z,8.60
2023-03-16T01:02:28.398Z,8.48
2023-03-16T01:04:56.086Z,8.46
2023-03-16T01:07:24.734Z,8.44
2023-03-16T01:09:52.514Z,8.12
2023-03-16T01:12:20.637Z,7.93
2023-03-16T01:14:48.806Z,7.84
2023-03-16T01:17:18.854Z,7.92
2023-03-16T01:19:47.169Z,7.85
2023-03-16T01:22:16.548Z,7.83
2023-03-16T01:24:45.950Z,7.83
2023-03-16T01:27:14.977Z,7.78
2023-03-16T01:29:46.638Z,7.84
2023-03-16T01:32:14.291Z,7.94
2023-03-16T01:34:43.607Z,7.95
2023-03-16T01:37:13.930Z,8.10
2023-03-16T01:39:49.999Z,7.99
2023-03-16T01:42:18.774Z,7.95
2023-03-16T01:44:56.804Z,8.02
2023-03-16T01:47:30.012Z,8.05
2023-03-16T01:49:58.370Z,7.97
2023-03-16T01:52:35.888Z,7.92
2023-03-16T01:55:09.568Z,7.96
2023-03-16T01:57:42.797Z,8.02
2023-03-16T02:00:20.926Z,8.01
2023-03-16T02:03:15.194Z,7.97
2023-03-16T02:05:59.778Z,8.07
2023-03-16T02:08:29.314Z,8.06
2023-03-16T02:10:58.499Z,7.91
2023-03-16T02:13:36.933Z,8.01
2023-03-16T02:16:08.698Z,8.09
2023-03-16T02:18:37.284Z,8.01
2023-03-16T02:21:12.618Z,8.07
2023-03-16T02:23:43.702Z,8.02
2023-03-16T02:26:29.496Z,8.00
2023-03-16T02:29:00.372Z,8.07
2023-03-16T02:31:30.681Z,8.00
2023-03-16T02:33:59.697Z,7.95
2023-03-16T02:36:29.628Z,8.02
2023-03-16T02:38:57.683Z,8.07
2023-03-16T02:41:25.606Z,8.02
2023-03-16T02:44:04.835Z,8.04
2023-03-16T02:46:37.665Z,7.97
2023-03-16T02:49:26.168Z,8.05
2023-03-16T02:51:54.664Z,8.05
2023-03-16T02:54:23.509Z,8.07
2023-03-16T02:56:53.013Z,8.10
2023-03-16T02:59:22.161Z,8.06
2023-03-16T03:01:51.572Z,8.11
2023-03-16T03:04:19.267Z,8.16
2023-03-16T03:06:50.652Z,8.21
2023-03-16T03:09:19.663Z,8.18
2023-03-16T03:11:50.732Z,8.18
2023-03-16T03:14:18.813Z,8.23
2023-03-16T03:16:49.575Z,8.22
2023-03-16T03:19:17.859Z,8.25
2023-03-16T03:21:45.561Z,8.26
2023-03-16T03:24:13.289Z,8.26
2023-03-16T03:26:41.911Z,8.22
2023-03-16T03:29:17.336Z,8.21
2023-03-16T03:31:45.540Z,8.22
2023-03-16T03:34:15.643Z,8.22
2023-03-16T03:36:43.392Z,8.20
2023-03-16T03:39:11.103Z,8.16
2023-03-16T03:41:39.560Z,8.29
2023-03-16T03:44:08.372Z,8.29
2023-03-16T03:46:38.229Z,8.30
2023-03-16T03:49:06.644Z,8.29
2023-03-16T03:51:36.504Z,8.18
2023-03-16T03:54:08.999Z,8.31
2023-03-16T03:56:47.918Z,8.24
2023-03-16T03:59:19.080Z,8.29
2023-03-16T04:02:16.666Z,8.29
2023-03-16T04:04:55.536Z,8.34
2023-03-16T04:07:23.801Z,8.25
2023-03-16T04:09:56.232Z,8.22
2023-03-16T04:12:33.524Z,8.24
2023-03-16T04:15:01.915Z,8.24
2023-03-16T04:17:35.518Z,8.24
2023-03-16T04:20:13.323Z,8.31
2023-03-16T04:22:43.498Z,8.18
2023-03-16T04:25:12.956Z,8.16
2023-03-16T04:27:42.067Z,8.13
2023-03-16T04:30:13.694Z,8.14
2023-03-16T04:32:46.772Z,8.21
2023-03-16T04:35:19.735Z,8.21
2023-03-16T04:37:55.122Z,8.23
2023-03-16T04:40:30.484Z,8.09
2023-03-16T04:43:07.994Z,8.02
2023-03-16T04:45:36.783Z,8.01
2023-03-16T04:48:04.954Z,7.92
2023-03-16T04:50:32.706Z,7.83
2023-03-16T04:53:01.596Z,7.84
2023-03-16T04:55:31.444Z,7.82
2023-03-16T04:57:59.787Z,7.78
2023-03-16T05:00:32.132Z,7.73
2023-03-16T05:03:19.639Z,7.62
2023-03-16T05:05:48.640Z,7.60
2023-03-16T05:08:17.995Z,7.59
2023-03-16T05:10:50.028Z,7.52
2023-03-16T05:13:19.629Z,7.53
2023-03-16T05:15:50.019Z,7.57
2023-03-16T05:18:23.235Z,7.60
2023-03-16T05:20:53.563Z,7.63
2023-03-16T05:23:22.909Z,7.48
2023-03-16T05:25:59.926Z,7.61
2023-03-16T05:28:30.150Z,7.62
2023-03-16T05:31:04.017Z,7.46
2023-03-16T05:33:38.959Z,7.51
2023-03-16T05:36:13.763Z,7.51
2023-03-16T05:38:45.696Z,7.51
2023-03-16T05:41:21.663Z,7.60
2023-03-16T05:44:01.063Z,7.50
2023-03-16T05:46:38.724Z,7.59
2023-03-16T05:49:07.967Z,7.64
2023-03-16T05:51:35.646Z,7.71
2023-03-16T05:54:06.723Z,7.69
2023-03-16T05:56:43.871Z,7.81
2023-03-16T05:59:11.849Z,7.97
2023-03-16T06:01:40.892Z,8.07
2023-03-16T06:04:09.173Z,8.18
2023-03-16T06:06:40.988Z,8.29
2023-03-16T06:09:17.702Z,8.25
2023-03-16T06:11:45.595Z,8.16
2023-03-16T06:14:15.965Z,8.43
2023-03-16T06:16:45.174Z,8.71
2023-03-16T06:19:14.743Z,8.87
2023-03-16T06:21:43.139Z,8.74
2023-03-16T06:24:13.523Z,8.79
2023-03-16T06:26:41.706Z,8.96
2023-03-16T06:29:13.034Z,9.04
2023-03-16T06:31:41.952Z,9.08
2023-03-16T06:34:11.778Z,9.26
2023-03-16T06:36:40.543Z,9.27
2023-03-16T06:39:14.431Z,9.41
2023-03-16T06:41:46.382Z,9.42
2023-03-16T06:44:16.854Z,9.44
2023-03-16T06:46:55.038Z,9.51
2023-03-16T06:49:23.653Z,9.57
2023-03-16T06:51:51.880Z,9.66
2023-03-16T06:54:21.438Z,9.76
2023-03-16T06:56:49.656Z,9.93
2023-03-16T06:59:17.711Z,10.00
2023-03-16T07:01:45.984Z,10.22
2023-03-16T07:04:14.178Z,10.36
2023-03-16T07:06:43.105Z,10.56
2023-03-16T07:09:12.632Z,10.63
2023-03-16T07:11:40.560Z,10.66
2023-03-16T07:14:08.897Z,10.90
2023-03-16T07:16:37.314Z,10.98
2023-03-16T07:19:07.757Z,11.02
2023-03-16T07:21:39.276Z,11.26
2023-03-16T07:24:10.847Z,11.18
2023-03-16T07:26:39.299Z,11.41
2023-03-16T07:29:07.904Z,11.58
2023-03-16T07:31:36.296Z,11.57
2023-03-16T07:34:09.430Z,11.55
2023-03-16T07:36:45.584Z,11.76
2023-03-16T07:39:14.458Z,12.01
2023-03-16T07:41:44.041Z,11.82
2023-03-16T07:44:17.710Z,11.86
2023-03-16T07:46:49.960Z,11.73
2023-03-16T07:49:18.153Z,11.84
2023-03-16T07:51:48.005Z,12.08
2023-03-16T07:54:18.385Z,12.55
2023-03-16T07:56:49.562Z,12.51
2023-03-16T07:59:30.338Z,12.14
2023-03-16T08:01:58.676Z,12.16
2023-03-16T08:04:26.454Z,12.13
2023-03-16T08:07:00.342Z,11.91
2023-03-16T08:09:37.976Z,11.75
2023-03-16T08:12:11.348Z,11.58
2023-03-16T08:14:39.744Z,11.62
2023-03-16T08:17:15.846Z,11.56
2023-03-16T08:19:46.234Z,11.77
2023-03-16T08:22:14.973Z,11.89
2023-03-16T08:24:46.292Z,11.83
2023-03-16T08:27:16.289Z,12.12
2023-03-16T08:29:53.661Z,12.19
2023-03-16T08:32:25.213Z,12.36
2023-03-16T08:34:53.940Z,12.74
2023-03-16T08:37:24.199Z,12.94
2023-03-16T08:39:54.692Z,12.99
2023-03-16T08:42:23.779Z,13.05
2023-03-16T08:45:00.389Z,13.21
2023-03-16T08:47:31.119Z,13.35
2023-03-16T08:50:00.371Z,13.69
2023-03-16T08:52:28.744Z,14.36
2023-03-16T08:55:03.529Z,14.70
2023-03-16T08:57:33.500Z,15.19
2023-03-16T09:00:01.593Z,15.07
2023-03-16T09:02:30.018Z,15.65
2023-03-16T09:04:57.631Z,15.77
2023-03-16T09:07:26.256Z,15.46
2023-03-16T09:09:54.856Z,15.64
2023-03-16T09:12:23.550Z,15.82
2023-03-16T09:14:51.717Z,16.18
2023-03-16T09:17:20.968Z,17.34
2023-03-16T09:19:52.392Z,18.74
2023-03-16T09:22:22.535Z,17.60
2023-03-16T09:24:51.442Z,17.29
2023-03-16T09:27:20.878Z,18.22
2023-03-16T09:30:01.961Z,19.28
2023-03-16T09:32:30.741Z,20.15
2023-03-16T09:35:02.457Z,20.25
2023-03-16T09:37:44.786Z,19.56
2023-03-16T09:40:25.840Z,19.37
2023-03-16T09:43:12.373Z,18.42
2023-03-16T09:45:59.980Z,19.80
2023-03-16T09:48:34.222Z,20.87
2023-03-16T09:51:37.223Z,20.92
2023-03-16T09:54:33.339Z,21.65
2023-03-16T09:57:05.533Z,21.08
2023-03-16T09:59:33.770Z,20.77
2023-03-16T10:02:49.988Z,21.51
2023-03-16T10:05:23.100Z,21.77
2023-03-16T10:07:54.051Z,21.75
2023-03-16T10:10:47.234Z,21.63
2023-03-16T10:13:57.174Z,22.62
2023-03-16T10:16:35.758Z,22.56
2023-03-16T10:19:15.788Z,21.82
2023-03-16T10:21:45.317Z,21.15
2023-03-16T10:24:52.043Z,22.05
2023-03-16T10:27:28.950Z,24.28
2023-03-16T10:29:58.213Z,23.24
2023-03-16T10:32:29.530Z,23.55
2023-03-16T10:35:12.184Z,22.78
2023-03-16T10:37:40.937Z,20.67
2023-03-16T10:40:12.416Z,18.90
2023-03-16T10:42:40.602Z,19.13
2023-03-16T10:45:34.719Z,20.77
2023-03-16T10:48:17.175Z,22.20
2023-03-16T10:50:52.160Z,22.76
2023-03-16T10:53:42.786Z,23.19
2023-03-16T10:56:20.579Z,23.59
2023-03-16T10:58:48.575Z,24.54
2023-03-16T11:01:24.308Z,24.30
2023-03-16T11:03:55.772Z,22.50
2023-03-16T11:06:33.117Z,23.06
2023-03-16T11:09:12.959Z,23.80
2023-03-16T11:11:48.615Z,23.53
2023-03-16T11:14:22.449Z,23.56
2023-03-16T11:19:27.342Z,23.89
2023-03-16T11:22:03.938Z,23.78
2023-03-16T11:24:46.740Z,23.60
2023-03-16T11:27:35.252Z,24.01
2023-03-16T11:30:15.217Z,23.72
2023-03-16T11:32:51.259Z,24.44
2023-03-16T11:35:41.948Z,24.71
2023-03-16T11:38:33.086Z,22.20
2023-03-16T11:41:06.060Z,22.64
2023-03-16T11:43:46.355Z,23.47
2023-03-16T11:46:22.889Z,22.81
2023-03-16T11:49:00.098Z,22.32
2023-03-16T11:51:58.362Z,21.91
2023-03-16T11:55:04.591Z,23.61
2023-03-16T11:57:55.588Z,23.71
2023-03-16T12:00:33.325Z,24.04
2023-03-16T12:03:26.024Z,23.77
2023-03-16T12:06:00.790Z,21.76
2023-03-16T12:08:32.696Z,22.45
2023-03-16T12:11:07.905Z,21.39
2023-03-16T12:14:01.589Z,20.71
2023-03-16T12:16:55.964Z,20.57
2023-03-16T12:19:38.641Z,20.85
2023-03-16T12:22:20.084Z,21.85
2023-03-16T12:24:48.325Z,21.21
2023-03-16T12:27:24.084Z,22.45
2023-03-16T12:30:01.914Z,23.30
2023-03-16T12:33:10.011Z,22.70
2023-03-16T12:35:49.752Z,21.97
2023-03-16T12:38:41.367Z,20.70
2023-03-16T12:41:18.012Z,21.68
2023-03-16T12:44:31.562Z,21.14
2023-03-16T12:47:09.080Z,21.62
2023-03-16T12:49:38.541Z,22.46
2023-03-16T12:52:10.808Z,22.21
2023-03-16T12:55:14.669Z,21.84
2023-03-16T12:57:45.502Z,21.89
2023-03-16T13:00:15.034Z,22.43
2023-03-16T13:02:57.326Z,23.45
2023-03-16T13:05:32.308Z,20.73
2023-03-16T13:08:13.795Z,22.42
2023-03-16T13:10:43.236Z,20.07
2023-03-16T13:13:15.293Z,21.37
2023-03-16T13:15:47.712Z,21.52
2023-03-16T13:18:15.530Z,22.62
2023-03-16T13:20:56.494Z,21.35
2023-03-16T13:23:46.588Z,21.48
2023-03-16T13:26:24.177Z,22.21
2023-03-16T13:28:54.511Z,21.69
2023-03-16T13:31:42.881Z,23.51
2023-03-16T13:34:29.922Z,24.14
2023-03-16T13:36:59.742Z,21.95
2023-03-16T13:39:30.604Z,23.71
2023-03-16T13:42:25.305Z,25.14
2023-03-16T13:44:54.974Z,28.23
2023-03-16T13:47:26.591Z,28.30
2023-03-16T13:50:00.316Z,28.80
2023-03-16T13:52:33.362Z,25.39
2023-03-16T13:55:07.943Z,26.47
2023-03-16T13:57:38.413Z,28.39
2023-03-16T14:00:25.536Z,28.71
2023-03-16T14:02:59.175Z,30.77
2023-03-16T14:05:33.625Z,32.46
2023-03-16T14:08:02.437Z,33.39
2023-03-16T14:10:34.430Z,32.70
2023-03-16T14:13:27.663Z,31.97
2023-03-16T14:15:59.143Z,31.10
2023-03-16T14:18:37.316Z,31.62
2023-03-16T14:21:09.930Z,29.32
2023-03-16T14:23:43.642Z,27.16
2023-03-16T14:26:14.446Z,27.74
2023-03-16T14:28:58.491Z,30.49
2023-03-16T14:31:35.865Z,29.88
2023-03-16T14:34:20.118Z,26.55
2023-03-16T14:36:48.642Z,27.04
2023-03-16T14:39:21.114Z,26.31
2023-03-16T14:41:51.416Z,26.46
2023-03-16T14:44:26.674Z,27.63
2023-03-16T14:46:57.470Z,30.03
2023-03-16T14:49:31.192Z,31.88
2023-03-16T14:52:32.744Z,29.76
2023-03-16T14:55:03.670Z,29.46
2023-03-16T14:57:32.358Z,30.46
2023-03-16T15:00:00.551Z,27.31
2023-03-16T15:02:31.281Z,28.78
2023-03-16T15:05:00.429Z,26.84
2023-03-16T15:07:38.164Z,27.49
2023-03-16T15:10:10.430Z,29.09
2023-03-16T15:12:38.610Z,29.71
2023-03-16T15:15:16.293Z,26.91
2023-03-16T15:17:48.964Z,26.46
2023-03-16T15:20:24.340Z,27.19
2023-03-16T15:22:53.516Z,28.11
2023-03-16T15:25:42.684Z,28.71
2023-03-16T15:28:11.745Z,28.16
2023-03-16T15:30:40.954Z,28.09
2023-03-16T15:33:10.901Z,28.51
2023-03-16T15:35:41.174Z,28.69
2023-03-16T15:38:16.770Z,25.75
2023-03-16T15:40:48.044Z,27.31
2023-03-16T15:43:18.716Z,27.29
2023-03-16T15:45:47.416Z,26.46
2023-03-16T15:48:16.385Z,25.95
2023-03-16T15:50:51.189Z,25.06
2023-03-16T15:53:31.392Z,24.27
2023-03-16T15:56:04.953Z,22.69
2023-03-16T15:58:35.143Z,20.49
2023-03-16T16:01:07.430Z,18.37
2023-03-16T16:03:35.840Z,17.14
2023-03-16T16:06:03.877Z,17.30
2023-03-16T16:08:32.274Z,17.00
2023-03-16T16:13:56.749Z,17.23
2023-03-16T16:16:27.470Z,16.34
2023-03-16T16:18:55.704Z,16.25
2023-03-16T16:21:26.795Z,16.43
2023-03-16T16:23:55.034Z,16.48
2023-03-16T16:26:37.641Z,16.35
2023-03-16T16:29:19.050Z,16.31
2023-03-16T16:31:47.869Z,16.23
2023-03-16T16:34:18.201Z,16.19
2023-03-16T16:36:46.083Z,15.89
2023-03-16T16:39:14.252Z,16.01
2023-03-16T16:41:43.602Z,15.70
2023-03-16T16:44:24.806Z,15.49
2023-03-16T16:46:55.038Z,15.41
2023-03-16T16:49:25.983Z,15.34
2023-03-16T16:51:54.283Z,15.07
2023-03-16T16:54:24.947Z,15.17
2023-03-16T16:56:55.638Z,15.40
2023-03-16T16:59:27.415Z,15.35
2023-03-16T17:01:56.741Z,15.13
2023-03-16T17:04:28.154Z,14.86
2023-03-16T17:07:02.140Z,14.74
2023-03-16T17:09:30.789Z,14.56
2023-03-16T17:12:01.887Z,14.44
2023-03-16T17:14:31.597Z,14.33
2023-03-16T17:17:03.100Z,14.31
2023-03-16T17:19:30.821Z,14.23
2023-03-16T17:21:58.507Z,14.05
2023-03-16T17:24:27.573Z,13.97
2023-03-16T17:26:59.950Z,14.02
2023-03-16T17:29:34.288Z,13.91
2023-03-16T17:32:08.221Z,13.96
2023-03-16T17:34:36.238Z,13.84
2023-03-16T17:37:05.358Z,13.78
2023-03-16T17:39:34.536Z,13.80
2023-03-16T17:42:06.242Z,13.86
2023-03-16T17:44:38.131Z,13.75
2023-03-16T17:47:18.497Z,13.57
2023-03-16T17:49:49.037Z,13.37
2023-03-16T17:52:26.382Z,13.33
2023-03-16T17:54:55.106Z,13.37
2023-03-16T17:57:31.682Z,13.22
2023-03-16T18:00:02.211Z,13.15
2023-03-16T18:02:44.850Z,13.15
2023-03-16T18:05:22.520Z,13.07
2023-03-16T18:07:54.717Z,12.98
2023-03-16T18:10:31.774Z,12.84
2023-03-16T18:13:09.467Z,12.84
2023-03-16T18:15:39.949Z,12.73
2023-03-16T18:18:09.389Z,12.66
2023-03-16T18:20:37.694Z,12.69
2023-03-16T18:23:16.954Z,12.45
2023-03-16T18:25:46.710Z,12.49
2023-03-16T18:28:15.873Z,12.46
2023-03-16T18:30:52.043Z,12.40
2023-03-16T18:33:28.796Z,12.32
2023-03-16T18:36:03.348Z,12.02
2023-03-16T18:38:36.813Z,12.09
2023-03-16T18:41:26.730Z,11.94
2023-03-16T18:43:59.744Z,11.78
2023-03-16T18:46:37.278Z,11.67
2023-03-16T18:49:15.576Z,11.74
2023-03-16T18:51:47.097Z,11.78
2023-03-16T18:54:35.131Z,11.81
2023-03-16T18:57:04.422Z,11.65
2023-03-16T18:59:32.670Z,11.73
2023-03-16T19:02:01.371Z,11.73
2023-03-16T19:04:32.882Z,11.66
2023-03-16T19:07:01.023Z,11.67
2023-03-16T19:09:32.546Z,11.57
2023-03-16T19:12:03.166Z,11.31
2023-03-16T19:14:34.986Z,11.08
2023-03-16T19:17:02.859Z,11.10
2023-03-16T19:19:31.605Z,11.14
2023-03-16T19:22:06.691Z,11.19
2023-03-16T19:24:41.632Z,11.25
2023-03-16T19:27:24.153Z,11.28
2023-03-16T19:29:54.475Z,10.93
2023-03-16T19:32:23.180Z,10.71
2023-03-16T19:34:51.352Z,10.89
2023-03-16T19:37:20.007Z,10.91
2023-03-16T19:39:48.156Z,10.82
2023-03-16T19:42:37.092Z,10.72
2023-03-16T19:45:05.789Z,10.74
2023-03-16T19:47:35.934Z,10.72
2023-03-16T19:50:13.291Z,10.80
2023-03-16T19:52:41.124Z,10.51
2023-03-16T19:55:09.674Z,10.43
2023-03-16T19:57:38.574Z,10.70
2023-03-16T20:00:09.060Z,10.81
2023-03-16T20:02:42.698Z,10.82
2023-03-16T20:05:18.175Z,10.70
2023-03-16T20:07:47.223Z,10.72
2023-03-16T20:10:29.588Z,10.65
2023-03-16T20:12:59.407Z,10.68
2023-03-16T20:15:34.261Z,10.62
2023-03-16T20:18:03.096Z,10.61
2023-03-16T20:20:35.966Z,10.43
2023-03-16T20:23:18.671Z,10.58
2023-03-16T20:25:47.778Z,10.64
2023-03-16T20:28:36.357Z,10.43
2023-03-16T20:31:08.336Z,10.53
2023-03-16T20:33:36.307Z,10.44
2023-03-16T20:36:04.592Z,10.53
2023-03-16T20:38:32.709Z,10.57
2023-03-16T20:41:01.701Z,10.54
2023-03-16T20:43:32.103Z,10.37
2023-03-16T20:46:02.433Z,10.44
2023-03-16T20:48:30.771Z,10.53
2023-03-16T20:51:00.130Z,10.50
2023-03-16T20:53:28.368Z,10.37
2023-03-16T20:55:56.917Z,10.48
2023-03-16T20:58:28.025Z,10.34
2023-03-16T21:01:02.050Z,10.26
2023-03-16T21:03:31.052Z,10.16
2023-03-16T21:06:00.213Z,10.18
2023-03-16T21:08:28.501Z,10.19
2023-03-16T21:10:57.511Z,10.18
2023-03-16T21:13:33.127Z,10.13
2023-03-16T21:16:03.417Z,10.01
2023-03-16T21:18:31.781Z,10.06
2023-03-16T21:20:59.400Z,10.15
2023-03-16T21:23:27.913Z,10.15
2023-03-16T21:25:59.631Z,10.08
2023-03-16T21:28:30.088Z,10.03
2023-03-16T21:30:58.758Z,9.96
2023-03-16T21:33:32.942Z,9.97
2023-03-16T21:36:03.802Z,10.01
2023-03-16T21:38:32.960Z,9.90
2023-03-16T21:41:01.508Z,9.85
2023-03-16T21:43:31.280Z,9.90
2023-03-16T21:45:59.963Z,9.92
2023-03-16T21:48:37.712Z,9.73
2023-03-16T21:51:17.859Z,9.66
2023-03-16T21:53:49.361Z,9.71
2023-03-16T21:56:22.987Z,9.54
2023-03-16T21:58:52.176Z,9.57
2023-03-16T22:01:26.759Z,9.52
2023-03-16T22:04:16.586Z,9.38
2023-03-16T22:06:46.088Z,9.46
2023-03-16T22:09:19.517Z,9.48
2023-03-16T22:11:47.969Z,9.57
2023-03-16T22:14:15.797Z,9.46
2023-03-16T22:16:44.070Z,9.52
2023-03-16T22:19:14.653Z,9.60
2023-03-16T22:21:44.610Z,9.56
2023-03-16T22:24:22.361Z,9.50
2023-03-16T22:26:51.581Z,9.46
2023-03-16T22:29:23.646Z,9.50
2023-03-16T22:31:55.406Z,9.50
2023-03-16T22:34:34.487Z,9.53
2023-03-16T22:37:02.897Z,9.40
2023-03-16T22:39:37.003Z,9.39
2023-03-16T22:42:27.628Z,9.44
2023-03-16T22:44:55.671Z,9.39
2023-03-16T22:47:26.772Z,9.39
2023-03-16T22:49:55.141Z,9.40
2023-03-16T22:52:28.949Z,9.39
2023-03-16T22:55:01.462Z,9.29
2023-03-16T22:57:31.345Z,9.19
2023-03-16T23:00:00.731Z,9.14
2023-03-16T23:02:29.201Z,9.15
2023-03-16T23:04:56.883Z,9.19
2023-03-16T23:07:24.522Z,9.28
2023-03-16T23:09:52.471Z,9.28
2023-03-16T23:12:21.783Z,9.22
2023-03-16T23:14:49.989Z,9.30
2023-03-16T23:17:20.445Z,9.15
2023-03-16T23:19:49.326Z,9.20
2023-03-16T23:22:17.763Z,9.14
2023-03-16T23:24:45.931Z,9.13
2023-03-16T23:27:22.176Z,9.15
2023-03-16T23:29:49.869Z,9.08
2023-03-16T23:32:18.174Z,9.04
2023-03-16T23:34:46.073Z,8.92
2023-03-16T23:37:14.553Z,8.95
2023-03-16T23:39:42.409Z,8.85
2023-03-16T23:42:10.168Z,8.69
2023-03-16T23:44:38.224Z,8.69
2023-03-16T23:47:07.135Z,8.41
2023-03-16T23:49:41.211Z,8.52
2023-03-16T23:52:12.306Z,8.49
2023-03-16T23:54:40.877Z,8.48
2023-03-16T23:57:10.193Z,8.50
2023-03-16T23:59:38.350Z,8.49
